Etusivu
METAR-TAF:

METAR-TAF

Lentoasemat :

Glenwood Municipal Airport

Glenwood, Minnesota, Yhdysvallat

Leveyspiiri: 45-39N, Pituuspiiri: 095-19W, korkeus merenpinnasta: 425 m

Tämänhetkinen sää

Tämä raportti tehtiin 14 minuuttia sitten, kello 00.56 UTC
Tuuli 7 kn kaakosta
Lämpötila -12°C
Kosteus 78%
Ilmanpaine 1026 hPa
Näkyvyys: 16.1 km
Hajonneita pilviä 11000 ft:n korkeudessa

METAR: KGHW 200056Z AUTO 13007KT 10SM BKN110 M12/M15 A3030 RMK AO2

Aika: 19:10 (01:10 UTC)


TAF: puuttuu

Säähavainnot ja -ennusteet yli 4000 lentoasemalta (METAR- ja TAF-raportit).

Käytössä olevat sääasemat on merkitty karttaan keltaisilla ja punaisilla pisteillä.

Aseta hiiri pisteen päälle nähdäksesi sääaseman nimen.

Klikkaa sitten nähdäksesi säähavainnot ja -ennusteet.

Kartan vaihtaminen: klikkaa mustalla rastilla varustettuja vihreitä pisteitä, niin voit zoomata sisään; viivalla varustettua vihreää pistettä, niin voit zoomata ulos tai vihreitä nuolia, niin pääset viereisille kartoille.


METAR-TAF: